sensor_id;sensor_type;location;lat;lon;timestamp;temperature;humidity
34829;DHT22;21042;47.620;12.188;2022-07-30T00:01:53;17.00;99.90
34829;DHT22;21042;47.620;12.188;2022-07-30T00:04:20;16.90;99.90
34829;DHT22;21042;47.620;12.188;2022-07-30T00:06:47;17.00;99.90
34829;DHT22;21042;47.620;12.188;2022-07-30T00:09:14;16.90;99.90
34829;DHT22;21042;47.620;12.188;2022-07-30T00:11:41;16.90;99.90
34829;DHT22;21042;47.620;12.188;2022-07-30T00:14:07;17.00;99.90
34829;DHT22;21042;47.620;12.188;2022-07-30T00:16:35;16.90;99.90
34829;DHT22;21042;47.620;12.188;2022-07-30T00:19:01;16.90;99.90
34829;DHT22;21042;47.620;12.188;2022-07-30T00:21:29;17.00;99.90
34829;DHT22;21042;47.620;12.188;2022-07-30T00:24:04;17.00;99.90
34829;DHT22;21042;47.620;12.188;2022-07-30T00:26:31;17.00;99.90
34829;DHT22;21042;47.620;12.188;2022-07-30T00:28:58;16.90;99.90
34829;DHT22;21042;47.620;12.188;2022-07-30T00:31:25;16.90;99.90
34829;DHT22;21042;47.620;12.188;2022-07-30T00:33:52;16.90;99.90
34829;DHT22;21042;47.620;12.188;2022-07-30T00:36:18;16.90;99.90
34829;DHT22;21042;47.620;12.188;2022-07-30T00:38:45;16.90;99.90
34829;DHT22;21042;47.620;12.188;2022-07-30T00:41:12;16.90;99.90
34829;DHT22;21042;47.620;12.188;2022-07-30T00:43:42;16.90;99.90
34829;DHT22;21042;47.620;12.188;2022-07-30T00:46:09;17.00;99.90
34829;DHT22;21042;47.620;12.188;2022-07-30T00:48:36;17.00;99.90
34829;DHT22;21042;47.620;12.188;2022-07-30T00:51:03;17.00;99.90
34829;DHT22;21042;47.620;12.188;2022-07-30T00:53:30;16.90;99.90
34829;DHT22;21042;47.620;12.188;2022-07-30T00:55:56;16.90;99.90
34829;DHT22;21042;47.620;12.188;2022-07-30T00:58:24;16.90;99.90
34829;DHT22;21042;47.620;12.188;2022-07-30T01:00:51;16.90;99.90
34829;DHT22;21042;47.620;12.188;2022-07-30T01:03:18;16.90;99.90
34829;DHT22;21042;47.620;12.188;2022-07-30T01:05:45;16.90;99.90
34829;DHT22;21042;47.620;12.188;2022-07-30T01:08:12;16.80;99.90
34829;DHT22;21042;47.620;12.188;2022-07-30T01:10:39;16.80;99.90
34829;DHT22;21042;47.620;12.188;2022-07-30T01:13:06;16.80;99.90
34829;DHT22;21042;47.620;12.188;2022-07-30T01:15:34;16.80;99.90
34829;DHT22;21042;47.620;12.188;2022-07-30T01:18:01;16.70;99.90
34829;DHT22;21042;47.620;12.188;2022-07-30T01:20:35;16.70;99.90
34829;DHT22;21042;47.620;12.188;2022-07-30T01:23:09;16.60;99.90
34829;DHT22;21042;47.620;12.188;2022-07-30T01:25:52;16.50;99.90
34829;DHT22;21042;47.620;12.188;2022-07-30T01:28:34;16.50;99.90
34829;DHT22;21042;47.620;12.188;2022-07-30T01:31:02;16.60;99.90
34829;DHT22;21042;47.620;12.188;2022-07-30T01:33:31;16.60;99.90
34829;DHT22;21042;47.620;12.188;2022-07-30T01:36:00;16.50;99.90
34829;DHT22;21042;47.620;12.188;2022-07-30T01:38:48;16.40;99.90
34829;DHT22;21042;47.620;12.188;2022-07-30T01:41:17;16.50;99.90
34829;DHT22;21042;47.620;12.188;2022-07-30T01:43:46;16.50;99.90
34829;DHT22;21042;47.620;12.188;2022-07-30T01:46:14;16.40;99.90
34829;DHT22;21042;47.620;12.188;2022-07-30T01:48:44;16.40;99.90
34829;DHT22;21042;47.620;12.188;2022-07-30T01:51:12;16.40;99.90
34829;DHT22;21042;47.620;12.188;2022-07-30T01:53:45;16.40;99.90
34829;DHT22;21042;47.620;12.188;2022-07-30T01:56:18;16.40;99.90
34829;DHT22;21042;47.620;12.188;2022-07-30T01:58:53;16.40;99.90
34829;DHT22;21042;47.620;12.188;2022-07-30T02:01:24;16.40;99.90
34829;DHT22;21042;47.620;12.188;2022-07-30T02:03:58;16.40;99.90
34829;DHT22;21042;47.620;12.188;2022-07-30T02:06:31;16.30;99.90
34829;DHT22;21042;47.620;12.188;2022-07-30T02:09:04;16.20;99.90
34829;DHT22;21042;47.620;12.188;2022-07-30T02:11:40;16.30;99.90
34829;DHT22;21042;47.620;12.188;2022-07-30T02:14:29;16.20;99.90
34829;DHT22;21042;47.620;12.188;2022-07-30T02:17:01;16.30;99.90
34829;DHT22;21042;47.620;12.188;2022-07-30T02:19:33;16.30;99.90
34829;DHT22;21042;47.620;12.188;2022-07-30T02:22:08;16.30;99.90
34829;DHT22;21042;47.620;12.188;2022-07-30T02:24:39;16.20;99.90
34829;DHT22;21042;47.620;12.188;2022-07-30T02:27:13;16.20;99.90
34829;DHT22;21042;47.620;12.188;2022-07-30T02:29:42;16.20;99.90
34829;DHT22;21042;47.620;12.188;2022-07-30T02:32:14;16.30;99.90
34829;DHT22;21042;47.620;12.188;2022-07-30T02:34:44;16.30;99.90
34829;DHT22;21042;47.620;12.188;2022-07-30T02:37:14;16.30;99.90
34829;DHT22;21042;47.620;12.188;2022-07-30T02:39:41;16.30;99.90
34829;DHT22;21042;47.620;12.188;2022-07-30T02:42:09;16.30;99.90
34829;DHT22;21042;47.620;12.188;2022-07-30T02:44:41;16.30;99.90
34829;DHT22;21042;47.620;12.188;2022-07-30T02:47:12;16.30;99.90
34829;DHT22;21042;47.620;12.188;2022-07-30T02:49:55;16.30;99.90
34829;DHT22;21042;47.620;12.188;2022-07-30T02:52:25;16.30;99.90
34829;DHT22;21042;47.620;12.188;2022-07-30T02:54:55;16.30;99.90
34829;DHT22;21042;47.620;12.188;2022-07-30T02:57:22;16.30;99.90
34829;DHT22;21042;47.620;12.188;2022-07-30T02:59:50;16.30;99.90
34829;DHT22;21042;47.620;12.188;2022-07-30T03:02:18;16.30;99.90
34829;DHT22;21042;47.620;12.188;2022-07-30T03:04:56;16.20;99.90
34829;DHT22;21042;47.620;12.188;2022-07-30T03:07:24;16.20;99.90
34829;DHT22;21042;47.620;12.188;2022-07-30T03:09:54;16.20;99.90
34829;DHT22;21042;47.620;12.188;2022-07-30T03:12:23;16.20;99.90
34829;DHT22;21042;47.620;12.188;2022-07-30T03:14:51;16.20;99.90
34829;DHT22;21042;47.620;12.188;2022-07-30T03:17:18;16.20;99.90
34829;DHT22;21042;47.620;12.188;2022-07-30T03:19:47;16.30;99.90
34829;DHT22;21042;47.620;12.188;2022-07-30T03:22:16;16.20;99.90
34829;DHT22;21042;47.620;12.188;2022-07-30T03:24:44;16.30;99.90
34829;DHT22;21042;47.620;12.188;2022-07-30T03:27:13;16.30;99.90
34829;DHT22;21042;47.620;12.188;2022-07-30T03:29:41;16.30;99.90
34829;DHT22;21042;47.620;12.188;2022-07-30T03:32:09;16.20;99.90
34829;DHT22;21042;47.620;12.188;2022-07-30T03:34:41;16.20;99.90
34829;DHT22;21042;47.620;12.188;2022-07-30T03:37:10;16.20;99.90
34829;DHT22;21042;47.620;12.188;2022-07-30T03:39:38;16.20;99.90
34829;DHT22;21042;47.620;12.188;2022-07-30T03:42:07;16.20;99.90
34829;DHT22;21042;47.620;12.188;2022-07-30T03:44:35;16.30;99.90
34829;DHT22;21042;47.620;12.188;2022-07-30T03:47:04;16.30;99.90
34829;DHT22;21042;47.620;12.188;2022-07-30T03:49:38;16.30;99.90
34829;DHT22;21042;47.620;12.188;2022-07-30T03:52:05;16.30;99.90
34829;DHT22;21042;47.620;12.188;2022-07-30T03:54:33;16.40;99.90
34829;DHT22;21042;47.620;12.188;2022-07-30T03:57:21;16.40;99.90
34829;DHT22;21042;47.620;12.188;2022-07-30T03:59:48;16.40;99.90
34829;DHT22;21042;47.620;12.188;2022-07-30T04:02:19;16.40;99.90
34829;DHT22;21042;47.620;12.188;2022-07-30T04:05:24;16.40;99.90
34829;DHT22;21042;47.620;12.188;2022-07-30T04:07:52;16.40;99.90
34829;DHT22;21042;47.620;12.188;2022-07-30T04:10:19;16.40;99.90
34829;DHT22;21042;47.620;12.188;2022-07-30T04:13:09;16.40;99.90
34829;DHT22;21042;47.620;12.188;2022-07-30T04:15:38;16.30;99.90
34829;DHT22;21042;47.620;12.188;2022-07-30T04:18:31;16.30;99.90
34829;DHT22;21042;47.620;12.188;2022-07-30T04:21:02;16.40;99.90
34829;DHT22;21042;47.620;12.188;2022-07-30T04:23:32;16.30;99.90
34829;DHT22;21042;47.620;12.188;2022-07-30T04:26:19;16.30;99.90
34829;DHT22;21042;47.620;12.188;2022-07-30T04:28:47;16.30;99.90
34829;DHT22;21042;47.620;12.188;2022-07-30T04:31:14;16.30;99.90
34829;DHT22;21042;47.620;12.188;2022-07-30T04:33:44;16.40;99.90
34829;DHT22;21042;47.620;12.188;2022-07-30T04:36:18;16.30;99.90
34829;DHT22;21042;47.620;12.188;2022-07-30T04:38:45;16.40;99.90
34829;DHT22;21042;47.620;12.188;2022-07-30T04:41:12;16.40;99.90
34829;DHT22;21042;47.620;12.188;2022-07-30T04:44:14;16.40;99.90
34829;DHT22;21042;47.620;12.188;2022-07-30T04:46:56;16.40;99.90
34829;DHT22;21042;47.620;12.188;2022-07-30T04:49:24;16.30;99.90
34829;DHT22;21042;47.620;12.188;2022-07-30T04:51:51;16.40;99.90
34829;DHT22;21042;47.620;12.188;2022-07-30T04:54:19;16.40;99.90
34829;DHT22;21042;47.620;12.188;2022-07-30T04:56:48;16.40;99.90
34829;DHT22;21042;47.620;12.188;2022-07-30T04:59:23;16.30;99.90
34829;DHT22;21042;47.620;12.188;2022-07-30T05:01:50;16.40;99.90
34829;DHT22;21042;47.620;12.188;2022-07-30T05:04:21;16.40;99.90
34829;DHT22;21042;47.620;12.188;2022-07-30T05:06:51;16.40;99.90
34829;DHT22;21042;47.620;12.188;2022-07-30T05:09:19;16.40;99.90
34829;DHT22;21042;47.620;12.188;2022-07-30T05:11:51;16.40;99.90
34829;DHT22;21042;47.620;12.188;2022-07-30T05:14:19;16.40;99.90
34829;DHT22;21042;47.620;12.188;2022-07-30T05:16:46;16.50;99.90
34829;DHT22;21042;47.620;12.188;2022-07-30T05:19:13;16.50;99.90
34829;DHT22;21042;47.620;12.188;2022-07-30T05:21:40;16.50;99.90
34829;DHT22;21042;47.620;12.188;2022-07-30T05:24:06;16.50;99.90
34829;DHT22;21042;47.620;12.188;2022-07-30T05:26:39;16.50;99.90
34829;DHT22;21042;47.620;12.188;2022-07-30T05:29:09;16.50;99.90
34829;DHT22;21042;47.620;12.188;2022-07-30T05:31:49;16.50;99.90
34829;DHT22;21042;47.620;12.188;2022-07-30T05:34:17;16.50;99.90
34829;DHT22;21042;47.620;12.188;2022-07-30T05:36:44;16.50;99.90
34829;DHT22;21042;47.620;12.188;2022-07-30T05:39:16;16.50;99.90
34829;DHT22;21042;47.620;12.188;2022-07-30T05:41:42;16.60;99.90
34829;DHT22;21042;47.620;12.188;2022-07-30T05:44:15;16.60;99.90
34829;DHT22;21042;47.620;12.188;2022-07-30T05:46:47;16.70;99.90
34829;DHT22;21042;47.620;12.188;2022-07-30T05:49:14;16.70;99.90
34829;DHT22;21042;47.620;12.188;2022-07-30T05:51:41;16.80;99.90
34829;DHT22;21042;47.620;12.188;2022-07-30T05:54:10;16.80;99.90
34829;DHT22;21042;47.620;12.188;2022-07-30T05:56:56;16.90;99.90
34829;DHT22;21042;47.620;12.188;2022-07-30T05:59:30;16.90;99.90
34829;DHT22;21042;47.620;12.188;2022-07-30T06:02:11;17.10;99.90
34829;DHT22;21042;47.620;12.188;2022-07-30T06:04:52;17.10;99.90
34829;DHT22;21042;47.620;12.188;2022-07-30T06:07:19;17.10;99.90
34829;DHT22;21042;47.620;12.188;2022-07-30T06:09:46;17.20;99.90
34829;DHT22;21042;47.620;12.188;2022-07-30T06:12:13;17.20;99.90
34829;DHT22;21042;47.620;12.188;2022-07-30T06:14:40;17.20;99.90
34829;DHT22;21042;47.620;12.188;2022-07-30T06:17:12;17.30;99.90
34829;DHT22;21042;47.620;12.188;2022-07-30T06:19:58;17.30;99.90
34829;DHT22;21042;47.620;12.188;2022-07-30T06:22:29;17.30;99.90
34829;DHT22;21042;47.620;12.188;2022-07-30T06:25:01;17.30;99.90
34829;DHT22;21042;47.620;12.188;2022-07-30T06:27:28;17.30;99.90
34829;DHT22;21042;47.620;12.188;2022-07-30T06:30:00;17.40;99.90
34829;DHT22;21042;47.620;12.188;2022-07-30T06:32:27;17.40;99.90
34829;DHT22;21042;47.620;12.188;2022-07-30T06:34:54;17.50;99.90
34829;DHT22;21042;47.620;12.188;2022-07-30T06:37:30;17.50;99.90
34829;DHT22;21042;47.620;12.188;2022-07-30T06:40:19;17.50;99.90
34829;DHT22;21042;47.620;12.188;2022-07-30T06:43:04;17.40;99.90
34829;DHT22;21042;47.620;12.188;2022-07-30T06:45:45;17.50;99.90
34829;DHT22;21042;47.620;12.188;2022-07-30T06:48:16;17.60;99.90
34829;DHT22;21042;47.620;12.188;2022-07-30T06:50:43;17.70;99.90
34829;DHT22;21042;47.620;12.188;2022-07-30T06:53:10;17.70;99.90
34829;DHT22;21042;47.620;12.188;2022-07-30T06:56:09;17.70;99.90
34829;DHT22;21042;47.620;12.188;2022-07-30T06:58:49;17.90;99.90
34829;DHT22;21042;47.620;12.188;2022-07-30T07:01:48;18.00;99.90
34829;DHT22;21042;47.620;12.188;2022-07-30T07:04:15;18.20;99.90
34829;DHT22;21042;47.620;12.188;2022-07-30T07:06:43;18.30;99.90
34829;DHT22;21042;47.620;12.188;2022-07-30T07:09:14;18.60;99.90
34829;DHT22;21042;47.620;12.188;2022-07-30T07:11:51;18.90;99.90
34829;DHT22;21042;47.620;12.188;2022-07-30T07:14:18;19.00;99.90
34829;DHT22;21042;47.620;12.188;2022-07-30T07:16:47;19.00;99.90
34829;DHT22;21042;47.620;12.188;2022-07-30T07:19:34;19.00;99.90
34829;DHT22;21042;47.620;12.188;2022-07-30T07:22:21;18.80;99.90
34829;DHT22;21042;47.620;12.188;2022-07-30T07:24:48;19.00;99.90
34829;DHT22;21042;47.620;12.188;2022-07-30T07:27:22;19.10;99.90
34829;DHT22;21042;47.620;12.188;2022-07-30T07:29:53;19.10;99.90
34829;DHT22;21042;47.620;12.188;2022-07-30T07:32:35;19.20;99.90
34829;DHT22;21042;47.620;12.188;2022-07-30T07:35:09;19.30;99.90
34829;DHT22;21042;47.620;12.188;2022-07-30T07:37:39;19.50;99.90
34829;DHT22;21042;47.620;12.188;2022-07-30T07:40:07;19.50;99.90
34829;DHT22;21042;47.620;12.188;2022-07-30T07:42:39;19.50;99.90
34829;DHT22;21042;47.620;12.188;2022-07-30T07:45:06;19.20;99.90
34829;DHT22;21042;47.620;12.188;2022-07-30T07:47:48;19.40;99.90
34829;DHT22;21042;47.620;12.188;2022-07-30T07:50:39;19.40;99.90
34829;DHT22;21042;47.620;12.188;2022-07-30T07:53:09;19.60;99.90
34829;DHT22;21042;47.620;12.188;2022-07-30T07:55:36;19.60;99.90
34829;DHT22;21042;47.620;12.188;2022-07-30T07:58:03;19.60;99.90
34829;DHT22;21042;47.620;12.188;2022-07-30T08:00:30;19.70;99.90
34829;DHT22;21042;47.620;12.188;2022-07-30T08:02:57;19.70;99.90
34829;DHT22;21042;47.620;12.188;2022-07-30T08:05:23;19.80;99.90
34829;DHT22;21042;47.620;12.188;2022-07-30T08:08:36;19.90;99.90
34829;DHT22;21042;47.620;12.188;2022-07-30T08:11:29;19.80;99.90
34829;DHT22;21042;47.620;12.188;2022-07-30T08:14:14;19.60;99.90
34829;DHT22;21042;47.620;12.188;2022-07-30T08:17:14;19.20;99.90
34829;DHT22;21042;47.620;12.188;2022-07-30T08:20:00;18.70;99.90
34829;DHT22;21042;47.620;12.188;2022-07-30T08:22:28;18.40;99.90
34829;DHT22;21042;47.620;12.188;2022-07-30T08:24:55;18.20;99.90
34829;DHT22;21042;47.620;12.188;2022-07-30T08:27:22;18.10;99.90
34829;DHT22;21042;47.620;12.188;2022-07-30T08:29:50;18.10;99.90
34829;DHT22;21042;47.620;12.188;2022-07-30T08:32:16;18.10;99.90
34829;DHT22;21042;47.620;12.188;2022-07-30T08:34:44;18.00;99.90
34829;DHT22;21042;47.620;12.188;2022-07-30T08:37:13;17.90;99.90
34829;DHT22;21042;47.620;12.188;2022-07-30T08:39:40;17.80;99.90
34829;DHT22;21042;47.620;12.188;2022-07-30T08:42:07;17.70;99.90
34829;DHT22;21042;47.620;12.188;2022-07-30T08:44:34;17.60;99.90
34829;DHT22;21042;47.620;12.188;2022-07-30T08:47:04;17.70;99.90
34829;DHT22;21042;47.620;12.188;2022-07-30T08:49:52;17.70;99.90
34829;DHT22;21042;47.620;12.188;2022-07-30T08:52:24;17.80;99.90
34829;DHT22;21042;47.620;12.188;2022-07-30T08:54:59;17.90;99.90
34829;DHT22;21042;47.620;12.188;2022-07-30T08:57:28;18.00;99.90
34829;DHT22;21042;47.620;12.188;2022-07-30T08:59:57;18.10;99.90
34829;DHT22;21042;47.620;12.188;2022-07-30T09:02:30;18.20;99.90
34829;DHT22;21042;47.620;12.188;2022-07-30T09:05:04;18.20;99.90
34829;DHT22;21042;47.620;12.188;2022-07-30T09:07:33;18.50;99.90
34829;DHT22;21042;47.620;12.188;2022-07-30T09:10:02;18.70;99.90
34829;DHT22;21042;47.620;12.188;2022-07-30T09:20:22;18.80;99.90
34829;DHT22;21042;47.620;12.188;2022-07-30T09:22:56;18.90;99.90
34829;DHT22;21042;47.620;12.188;2022-07-30T09:25:47;19.10;99.90
34829;DHT22;21042;47.620;12.188;2022-07-30T09:28:34;19.40;99.90
34829;DHT22;21042;47.620;12.188;2022-07-30T09:31:14;19.50;99.90
34829;DHT22;21042;47.620;12.188;2022-07-30T09:34:32;19.80;99.90
34829;DHT22;21042;47.620;12.188;2022-07-30T09:37:01;20.10;99.90
34829;DHT22;21042;47.620;12.188;2022-07-30T09:40:13;20.60;99.90
34829;DHT22;21042;47.620;12.188;2022-07-30T09:43:10;20.90;99.90
34829;DHT22;21042;47.620;12.188;2022-07-30T09:45:54;20.70;99.90
34829;DHT22;21042;47.620;12.188;2022-07-30T09:48:26;20.60;99.90
34829;DHT22;21042;47.620;12.188;2022-07-30T09:50:54;20.60;99.90
34829;DHT22;21042;47.620;12.188;2022-07-30T09:53:23;20.70;99.90
34829;DHT22;21042;47.620;12.188;2022-07-30T09:55:51;20.50;99.90
34829;DHT22;21042;47.620;12.188;2022-07-30T09:58:18;20.70;99.90
34829;DHT22;21042;47.620;12.188;2022-07-30T10:00:57;21.00;99.90
34829;DHT22;21042;47.620;12.188;2022-07-30T10:03:47;21.40;99.90
34829;DHT22;21042;47.620;12.188;2022-07-30T10:06:35;21.00;99.90
34829;DHT22;21042;47.620;12.188;2022-07-30T10:09:29;20.90;99.90
34829;DHT22;21042;47.620;12.188;2022-07-30T10:12:00;20.70;99.90
34829;DHT22;21042;47.620;12.188;2022-07-30T10:14:35;20.40;99.90
34829;DHT22;21042;47.620;12.188;2022-07-30T10:17:11;20.70;99.90
34829;DHT22;21042;47.620;12.188;2022-07-30T10:19:39;20.90;99.90
34829;DHT22;21042;47.620;12.188;2022-07-30T10:22:26;21.10;99.90
34829;DHT22;21042;47.620;12.188;2022-07-30T10:25:00;21.10;99.90
34829;DHT22;21042;47.620;12.188;2022-07-30T10:27:47;21.40;99.90
34829;DHT22;21042;47.620;12.188;2022-07-30T10:30:26;21.50;99.90
34829;DHT22;21042;47.620;12.188;2022-07-30T10:32:56;21.10;99.90
34829;DHT22;21042;47.620;12.188;2022-07-30T10:35:25;21.00;99.90
34829;DHT22;21042;47.620;12.188;2022-07-30T10:38:07;20.90;99.90
34829;DHT22;21042;47.620;12.188;2022-07-30T10:40:49;21.00;99.90
34829;DHT22;21042;47.620;12.188;2022-07-30T10:46:20;21.30;99.90
34829;DHT22;21042;47.620;12.188;2022-07-30T10:48:52;21.40;99.90
34829;DHT22;21042;47.620;12.188;2022-07-30T10:51:45;21.70;99.90
34829;DHT22;21042;47.620;12.188;2022-07-30T10:54:39;21.90;99.90
34829;DHT22;21042;47.620;12.188;2022-07-30T11:02:16;22.00;99.90
34829;DHT22;21042;47.620;12.188;2022-07-30T11:04:43;21.80;99.90
34829;DHT22;21042;47.620;12.188;2022-07-30T11:09:51;22.40;99.90
34829;DHT22;21042;47.620;12.188;2022-07-30T11:15:14;22.80;99.90
34829;DHT22;21042;47.620;12.188;2022-07-30T11:18:06;22.80;99.90
34829;DHT22;21042;47.620;12.188;2022-07-30T11:20:39;22.60;99.90
34829;DHT22;21042;47.620;12.188;2022-07-30T11:25:50;22.60;99.90
34829;DHT22;21042;47.620;12.188;2022-07-30T11:28:33;22.60;99.90
34829;DHT22;21042;47.620;12.188;2022-07-30T11:31:02;22.70;99.90
34829;DHT22;21042;47.620;12.188;2022-07-30T11:33:36;22.90;99.90
34829;DHT22;21042;47.620;12.188;2022-07-30T11:36:10;23.00;99.90
34829;DHT22;21042;47.620;12.188;2022-07-30T11:38:54;23.10;99.90
34829;DHT22;21042;47.620;12.188;2022-07-30T11:41:29;23.30;99.90
34829;DHT22;21042;47.620;12.188;2022-07-30T11:44:28;23.20;99.90
34829;DHT22;21042;47.620;12.188;2022-07-30T11:46:55;23.10;99.90
34829;DHT22;21042;47.620;12.188;2022-07-30T11:49:22;22.90;99.90
34829;DHT22;21042;47.620;12.188;2022-07-30T11:51:49;22.70;99.90
34829;DHT22;21042;47.620;12.188;2022-07-30T11:54:16;22.50;99.90
34829;DHT22;21042;47.620;12.188;2022-07-30T11:56:49;22.40;99.90
34829;DHT22;21042;47.620;12.188;2022-07-30T11:59:16;22.20;99.90
34829;DHT22;21042;47.620;12.188;2022-07-30T12:01:42;22.20;99.90
34829;DHT22;21042;47.620;12.188;2022-07-30T12:04:14;22.10;99.90
34829;DHT22;21042;47.620;12.188;2022-07-30T12:06:45;21.90;99.90
34829;DHT22;21042;47.620;12.188;2022-07-30T12:09:19;22.30;99.90
34829;DHT22;21042;47.620;12.188;2022-07-30T12:11:47;23.00;99.90
34829;DHT22;21042;47.620;12.188;2022-07-30T12:14:15;23.40;99.90
34829;DHT22;21042;47.620;12.188;2022-07-30T12:16:48;23.60;99.90
34829;DHT22;21042;47.620;12.188;2022-07-30T12:19:15;23.30;99.90
34829;DHT22;21042;47.620;12.188;2022-07-30T12:21:42;23.00;99.90
34829;DHT22;21042;47.620;12.188;2022-07-30T12:24:09;22.60;99.90
34829;DHT22;21042;47.620;12.188;2022-07-30T12:26:37;22.40;99.90
34829;DHT22;21042;47.620;12.188;2022-07-30T12:29:07;22.60;99.90
34829;DHT22;21042;47.620;12.188;2022-07-30T12:31:39;23.10;99.90
34829;DHT22;21042;47.620;12.188;2022-07-30T12:34:19;23.00;99.90
34829;DHT22;21042;47.620;12.188;2022-07-30T12:36:46;23.50;99.90
34829;DHT22;21042;47.620;12.188;2022-07-30T12:39:22;23.80;99.90
34829;DHT22;21042;47.620;12.188;2022-07-30T12:41:51;24.00;99.90
34829;DHT22;21042;47.620;12.188;2022-07-30T12:44:36;24.10;99.90
34829;DHT22;21042;47.620;12.188;2022-07-30T12:47:05;23.80;99.90
34829;DHT22;21042;47.620;12.188;2022-07-30T12:49:33;23.60;99.90
34829;DHT22;21042;47.620;12.188;2022-07-30T12:52:23;23.40;99.90
34829;DHT22;21042;47.620;12.188;2022-07-30T12:55:04;23.20;99.90
34829;DHT22;21042;47.620;12.188;2022-07-30T12:57:50;22.80;99.90
34829;DHT22;21042;47.620;12.188;2022-07-30T13:00:17;22.50;99.90
34829;DHT22;21042;47.620;12.188;2022-07-30T13:02:44;23.10;99.90
34829;DHT22;21042;47.620;12.188;2022-07-30T13:05:11;23.80;99.90
34829;DHT22;21042;47.620;12.188;2022-07-30T13:07:59;24.10;99.90
34829;DHT22;21042;47.620;12.188;2022-07-30T13:10:26;24.70;99.90
34829;DHT22;21042;47.620;12.188;2022-07-30T13:12:57;24.60;99.90
34829;DHT22;21042;47.620;12.188;2022-07-30T13:15:24;24.50;99.90
34829;DHT22;21042;47.620;12.188;2022-07-30T13:17:51;24.10;99.90
34829;DHT22;21042;47.620;12.188;2022-07-30T13:20:18;23.60;99.90
34829;DHT22;21042;47.620;12.188;2022-07-30T13:22:46;23.30;99.90
34829;DHT22;21042;47.620;12.188;2022-07-30T13:25:13;23.20;99.90
34829;DHT22;21042;47.620;12.188;2022-07-30T13:27:39;23.10;99.90
34829;DHT22;21042;47.620;12.188;2022-07-30T13:30:07;23.60;99.90
34829;DHT22;21042;47.620;12.188;2022-07-30T13:32:34;23.70;99.90
34829;DHT22;21042;47.620;12.188;2022-07-30T13:35:00;23.70;99.90
34829;DHT22;21042;47.620;12.188;2022-07-30T13:37:28;23.70;99.90
34829;DHT22;21042;47.620;12.188;2022-07-30T13:40:05;23.50;99.90
34829;DHT22;21042;47.620;12.188;2022-07-30T13:42:32;23.30;99.90
34829;DHT22;21042;47.620;12.188;2022-07-30T13:44:58;23.20;99.90
34829;DHT22;21042;47.620;12.188;2022-07-30T13:47:25;23.20;99.90
34829;DHT22;21042;47.620;12.188;2022-07-30T13:49:52;23.30;99.90
34829;DHT22;21042;47.620;12.188;2022-07-30T13:52:19;23.50;99.90
34829;DHT22;21042;47.620;12.188;2022-07-30T13:54:46;23.50;99.90
34829;DHT22;21042;47.620;12.188;2022-07-30T13:57:12;23.40;99.90
34829;DHT22;21042;47.620;12.188;2022-07-30T13:59:39;23.40;99.90
34829;DHT22;21042;47.620;12.188;2022-07-30T14:02:07;23.40;99.90
34829;DHT22;21042;47.620;12.188;2022-07-30T14:04:33;23.30;99.90
34829;DHT22;21042;47.620;12.188;2022-07-30T14:07:00;23.30;99.90
34829;DHT22;21042;47.620;12.188;2022-07-30T14:09:27;23.20;99.90
34829;DHT22;21042;47.620;12.188;2022-07-30T14:11:54;23.10;99.90
34829;DHT22;21042;47.620;12.188;2022-07-30T14:14:21;23.50;99.90
34829;DHT22;21042;47.620;12.188;2022-07-30T14:16:51;24.30;99.90
34829;DHT22;21042;47.620;12.188;2022-07-30T14:19:20;25.00;99.90
34829;DHT22;21042;47.620;12.188;2022-07-30T14:21:50;25.20;99.90
34829;DHT22;21042;47.620;12.188;2022-07-30T14:24:18;25.30;99.90
34829;DHT22;21042;47.620;12.188;2022-07-30T14:26:45;25.20;99.90
34829;DHT22;21042;47.620;12.188;2022-07-30T14:29:12;25.20;99.90
34829;DHT22;21042;47.620;12.188;2022-07-30T14:31:39;25.20;99.90
34829;DHT22;21042;47.620;12.188;2022-07-30T14:34:06;25.20;99.90
34829;DHT22;21042;47.620;12.188;2022-07-30T14:36:33;24.80;99.90
34829;DHT22;21042;47.620;12.188;2022-07-30T14:39:00;24.20;99.90
34829;DHT22;21042;47.620;12.188;2022-07-30T14:41:30;23.70;99.90
34829;DHT22;21042;47.620;12.188;2022-07-30T14:43:57;23.30;99.90
34829;DHT22;21042;47.620;12.188;2022-07-30T14:46:24;22.90;99.90
34829;DHT22;21042;47.620;12.188;2022-07-30T14:48:51;22.70;99.90
34829;DHT22;21042;47.620;12.188;2022-07-30T14:51:18;22.40;99.90
34829;DHT22;21042;47.620;12.188;2022-07-30T14:53:51;22.20;99.90
34829;DHT22;21042;47.620;12.188;2022-07-30T14:56:18;22.10;99.90
34829;DHT22;21042;47.620;12.188;2022-07-30T14:58:46;21.90;99.90
34829;DHT22;21042;47.620;12.188;2022-07-30T15:01:13;21.80;99.90
34829;DHT22;21042;47.620;12.188;2022-07-30T15:03:43;21.90;99.90
34829;DHT22;21042;47.620;12.188;2022-07-30T15:06:10;22.50;99.90
34829;DHT22;21042;47.620;12.188;2022-07-30T15:08:38;22.90;99.90
34829;DHT22;21042;47.620;12.188;2022-07-30T15:11:05;23.00;99.90
34829;DHT22;21042;47.620;12.188;2022-07-30T15:13:35;23.10;99.90
34829;DHT22;21042;47.620;12.188;2022-07-30T15:16:04;23.20;99.90
34829;DHT22;21042;47.620;12.188;2022-07-30T15:18:32;23.00;99.90
34829;DHT22;21042;47.620;12.188;2022-07-30T15:20:59;22.80;99.90
34829;DHT22;21042;47.620;12.188;2022-07-30T15:23:25;22.60;99.90
34829;DHT22;21042;47.620;12.188;2022-07-30T15:25:52;22.60;99.90
34829;DHT22;21042;47.620;12.188;2022-07-30T15:28:20;22.90;99.90
34829;DHT22;21042;47.620;12.188;2022-07-30T15:30:49;23.40;99.90
34829;DHT22;21042;47.620;12.188;2022-07-30T15:33:16;24.10;99.90
34829;DHT22;21042;47.620;12.188;2022-07-30T15:35:42;24.50;99.90
34829;DHT22;21042;47.620;12.188;2022-07-30T15:38:09;24.60;99.90
34829;DHT22;21042;47.620;12.188;2022-07-30T15:40:36;25.10;99.90
34829;DHT22;21042;47.620;12.188;2022-07-30T15:43:05;25.40;99.90
34829;DHT22;21042;47.620;12.188;2022-07-30T15:45:36;25.40;99.80
34829;DHT22;21042;47.620;12.188;2022-07-30T15:48:21;24.90;99.90
34829;DHT22;21042;47.620;12.188;2022-07-30T15:51:00;24.50;99.90
34829;DHT22;21042;47.620;12.188;2022-07-30T15:53:28;24.20;99.90
34829;DHT22;21042;47.620;12.188;2022-07-30T15:55:57;24.20;99.90
34829;DHT22;21042;47.620;12.188;2022-07-30T15:58:24;24.60;99.90
34829;DHT22;21042;47.620;12.188;2022-07-30T16:00:51;25.10;99.90
34829;DHT22;21042;47.620;12.188;2022-07-30T16:03:18;25.00;99.10
34829;DHT22;21042;47.620;12.188;2022-07-30T16:05:45;24.30;99.90
34829;DHT22;21042;47.620;12.188;2022-07-30T16:08:19;24.30;99.90
34829;DHT22;21042;47.620;12.188;2022-07-30T16:10:47;24.10;99.90